createdAt,value
2018-08-09T00:01:01.024Z,21.40
2018-08-09T00:03:29.483Z,21.40
2018-08-09T00:05:57.895Z,21.30
2018-08-09T00:08:26.577Z,21.30
2018-08-09T00:10:54.965Z,21.30
2018-08-09T00:13:23.325Z,21.30
2018-08-09T00:15:51.705Z,21.30
2018-08-09T00:18:20.073Z,21.30
2018-08-09T00:20:48.663Z,21.20
2018-08-09T00:23:17.061Z,21.20
2018-08-09T00:25:45.460Z,21.20
2018-08-09T00:28:14.070Z,21.20
2018-08-09T00:30:42.519Z,21.10
2018-08-09T00:33:10.916Z,21.10
2018-08-09T00:35:39.269Z,21.10
2018-08-09T00:38:07.906Z,21.10
2018-08-09T00:40:36.448Z,21.10
2018-08-09T00:43:04.877Z,21.10
2018-08-09T00:45:33.309Z,21.10
2018-08-09T00:48:02.090Z,21.10
2018-08-09T00:50:31.069Z,21.00
2018-08-09T00:52:59.457Z,21.00
2018-08-09T00:55:27.849Z,20.90
2018-08-09T00:57:56.470Z,20.90
2018-08-09T01:00:24.905Z,20.90
2018-08-09T01:02:53.312Z,20.80
2018-08-09T01:05:21.906Z,20.80
2018-08-09T01:07:50.300Z,20.80
2018-08-09T01:10:18.729Z,20.80
2018-08-09T01:12:47.557Z,20.80
2018-08-09T01:15:16.009Z,20.80
2018-08-09T01:17:44.421Z,20.80
2018-08-09T01:20:12.852Z,20.80
2018-08-09T01:22:41.671Z,20.80
2018-08-09T01:25:10.086Z,20.70
2018-08-09T01:27:38.516Z,20.70
2018-08-09T01:30:07.109Z,20.80
2018-08-09T01:32:35.483Z,20.80
2018-08-09T01:35:03.953Z,20.80
2018-08-09T01:37:32.589Z,20.80
2018-08-09T01:40:01.276Z,20.80
2018-08-09T01:42:40.917Z,20.80
2018-08-09T01:45:09.296Z,20.80
2018-08-09T01:47:37.920Z,20.80
2018-08-09T01:50:06.384Z,20.70
2018-08-09T01:52:34.831Z,20.70
2018-08-09T01:55:03.438Z,20.70
2018-08-09T01:57:31.844Z,20.60
2018-08-09T02:00:00.413Z,20.60
2018-08-09T02:02:28.965Z,20.60
2018-08-09T02:04:57.642Z,20.50
2018-08-09T02:07:26.049Z,20.50
2018-08-09T02:09:54.630Z,20.50
2018-08-09T02:12:23.083Z,20.40
2018-08-09T02:14:51.500Z,20.40
2018-08-09T02:17:20.086Z,20.40
2018-08-09T02:19:48.529Z,20.40
2018-08-09T02:22:16.944Z,20.40
2018-08-09T02:24:45.581Z,20.40
2018-08-09T02:27:13.959Z,20.40
2018-08-09T02:29:42.325Z,20.40
2018-08-09T02:32:10.920Z,20.40
2018-08-09T02:34:39.497Z,20.40
2018-08-09T02:37:07.926Z,20.40
2018-08-09T02:39:36.450Z,20.40
2018-08-09T02:42:04.865Z,20.30
2018-08-09T02:44:33.280Z,20.30
2018-08-09T02:47:02.085Z,20.30
2018-08-09T02:49:30.477Z,20.30
2018-08-09T02:51:58.881Z,20.30
2018-08-09T02:54:27.457Z,20.30
2018-08-09T02:56:55.817Z,20.20
2018-08-09T02:59:24.201Z,20.20
2018-08-09T03:01:52.897Z,20.20
2018-08-09T03:04:21.301Z,20.20
2018-08-09T03:06:49.704Z,20.20
2018-08-09T03:09:18.139Z,20.20
2018-08-09T03:11:46.760Z,20.10
2018-08-09T03:14:15.177Z,20.10
2018-08-09T03:16:43.525Z,20.10
2018-08-09T03:19:11.915Z,20.10
2018-08-09T03:21:40.514Z,20.10
2018-08-09T03:24:08.892Z,20.00
2018-08-09T03:26:37.296Z,20.00
2018-08-09T03:29:05.780Z,20.00
2018-08-09T03:31:34.509Z,20.00
2018-08-09T03:34:02.986Z,20.00
2018-08-09T03:36:32.053Z,20.00
2018-08-09T03:39:00.429Z,20.00
2018-08-09T03:41:29.053Z,20.00
2018-08-09T03:43:57.461Z,20.00
2018-08-09T03:46:25.846Z,20.00
2018-08-09T03:48:54.513Z,19.90
2018-08-09T03:51:22.909Z,19.90
2018-08-09T03:53:51.302Z,19.90
2018-08-09T03:56:19.893Z,19.80
2018-08-09T03:58:48.268Z,19.80
2018-08-09T04:01:16.692Z,19.80
2018-08-09T04:03:45.415Z,19.80
2018-08-09T04:06:13.790Z,19.70
2018-08-09T04:08:42.186Z,19.70
2018-08-09T04:11:10.774Z,19.70
2018-08-09T04:13:39.138Z,19.60
2018-08-09T04:16:07.532Z,19.60
2018-08-09T04:18:36.135Z,19.60
2018-08-09T04:21:04.646Z,19.60
2018-08-09T04:23:33.010Z,19.50
2018-08-09T04:26:02.568Z,19.60
2018-08-09T04:28:31.073Z,19.60
2018-08-09T04:30:59.444Z,19.60
2018-08-09T04:33:28.045Z,19.70
2018-08-09T04:35:56.449Z,19.70
2018-08-09T04:38:24.811Z,20.00
2018-08-09T04:40:53.230Z,20.40
2018-08-09T04:43:21.960Z,20.70
2018-08-09T04:45:50.329Z,20.90
2018-08-09T04:48:18.734Z,21.20
2018-08-09T04:50:47.129Z,21.60
2018-08-09T04:53:15.501Z,21.90
2018-08-09T04:55:44.134Z,22.20
2018-08-09T04:58:12.601Z,22.50
2018-08-09T05:00:40.988Z,22.80
2018-08-09T05:03:09.530Z,23.10
2018-08-09T05:05:37.894Z,23.40
2018-08-09T05:08:06.256Z,23.80
2018-08-09T05:10:34.681Z,24.10
2018-08-09T05:13:03.116Z,24.30
2018-08-09T05:15:32.597Z,24.50
2018-08-09T05:18:01.113Z,24.80
2018-08-09T05:20:29.474Z,25.10
2018-08-09T05:22:58.120Z,25.40
2018-08-09T05:25:26.605Z,25.40
2018-08-09T05:27:54.985Z,25.50
2018-08-09T05:30:23.602Z,25.50
2018-08-09T05:32:51.985Z,25.40
2018-08-09T05:35:20.370Z,25.50
2018-08-09T05:37:49.081Z,25.60
2018-08-09T05:40:17.465Z,26.00
2018-08-09T05:42:46.031Z,26.30
2018-08-09T05:45:14.577Z,26.70
2018-08-09T05:47:42.969Z,26.80
2018-08-09T05:50:11.316Z,26.70
2018-08-09T05:52:39.762Z,26.90
2018-08-09T05:55:08.191Z,27.10
2018-08-09T05:57:36.925Z,27.20
2018-08-09T06:00:06.719Z,27.70
2018-08-09T06:02:35.101Z,27.40
2018-08-09T06:05:03.736Z,27.70
2018-08-09T06:07:32.696Z,28.10
2018-08-09T06:10:01.113Z,28.20
2018-08-09T06:12:29.793Z,28.00
2018-08-09T06:14:58.530Z,28.00
2018-08-09T06:17:26.931Z,28.30
2018-08-09T06:19:55.550Z,28.30
2018-08-09T06:22:24.009Z,28.40
2018-08-09T06:24:52.429Z,28.50
2018-08-09T06:27:21.072Z,28.40
2018-08-09T06:29:49.478Z,28.30
2018-08-09T06:32:17.970Z,28.30
2018-08-09T06:34:46.537Z,27.80
2018-08-09T06:37:14.905Z,27.80
2018-08-09T06:39:43.342Z,27.50
2018-08-09T06:42:11.924Z,27.30
2018-08-09T06:44:40.297Z,27.20
2018-08-09T06:47:08.656Z,27.30
2018-08-09T06:49:37.302Z,27.60
2018-08-09T06:52:05.801Z,28.00
2018-08-09T06:54:34.235Z,28.00
2018-08-09T06:57:02.976Z,27.70
2018-08-09T06:59:31.406Z,27.40
2018-08-09T07:02:00.012Z,26.70
2018-08-09T07:04:28.449Z,26.10
2018-08-09T07:06:56.882Z,25.00
2018-08-09T07:09:25.532Z,24.40
2018-08-09T07:11:53.998Z,24.30
2018-08-09T07:14:22.369Z,24.40
2018-08-09T07:16:50.989Z,24.90
2018-08-09T07:19:19.425Z,25.20
2018-08-09T07:21:47.833Z,25.50
2018-08-09T07:24:16.457Z,25.40
2018-08-09T07:26:44.894Z,25.40
2018-08-09T07:29:13.281Z,25.10
2018-08-09T07:31:41.693Z,24.90
2018-08-09T07:34:10.296Z,24.90
2018-08-09T07:36:38.833Z,24.80
2018-08-09T07:39:08.485Z,24.80
2018-08-09T07:41:37.805Z,25.10
2018-08-09T07:44:06.189Z,25.20
2018-08-09T07:46:34.569Z,25.30
2018-08-09T07:49:03.782Z,25.20
2018-08-09T07:51:33.329Z,25.20
2018-08-09T07:54:01.713Z,25.30
2018-08-09T07:56:30.436Z,25.40
2018-08-09T07:58:58.890Z,25.30
2018-08-09T08:01:27.310Z,25.10
2018-08-09T08:03:55.917Z,24.90
2018-08-09T08:06:24.385Z,24.80
2018-08-09T08:08:52.813Z,24.80
2018-08-09T08:11:21.402Z,24.70
2018-08-09T08:13:49.837Z,24.90
2018-08-09T08:16:18.217Z,25.10
2018-08-09T08:18:46.872Z,25.20
2018-08-09T08:21:15.293Z,25.20
2018-08-09T08:23:43.737Z,25.40
2018-08-09T08:26:12.210Z,25.50
2018-08-09T08:28:40.614Z,25.50
2018-08-09T08:31:09.362Z,25.60
2018-08-09T08:33:37.801Z,25.70
2018-08-09T08:36:06.270Z,25.60
2018-08-09T08:38:34.680Z,25.50
2018-08-09T08:41:03.721Z,25.60
2018-08-09T08:43:32.156Z,26.00
2018-08-09T08:46:00.593Z,26.10
2018-08-09T08:48:29.261Z,26.10
2018-08-09T08:50:57.639Z,26.30
2018-08-09T08:53:26.031Z,26.50
2018-08-09T08:55:54.581Z,26.70
2018-08-09T08:58:23.002Z,27.00
2018-08-09T09:00:51.449Z,27.30
2018-08-09T09:03:20.050Z,27.70
2018-08-09T09:05:48.457Z,27.80
2018-08-09T09:08:16.857Z,27.70
2018-08-09T09:10:45.517Z,27.80
2018-08-09T09:13:13.913Z,27.90
2018-08-09T09:15:42.426Z,27.60
2018-08-09T09:18:11.006Z,27.70
2018-08-09T09:20:39.467Z,27.70
2018-08-09T09:23:07.932Z,27.80
2018-08-09T09:25:36.568Z,27.80
2018-08-09T09:28:05.086Z,27.90
2018-08-09T09:30:33.629Z,28.10
2018-08-09T09:33:02.281Z,27.90
2018-08-09T09:35:30.665Z,27.40
2018-08-09T09:37:59.073Z,27.20
2018-08-09T09:40:27.638Z,27.20
2018-08-09T09:42:56.057Z,27.30
2018-08-09T09:45:24.461Z,27.60
2018-08-09T09:47:53.066Z,27.70
2018-08-09T09:50:21.424Z,27.90
2018-08-09T09:52:49.877Z,28.20
2018-08-09T09:55:18.473Z,28.50
2018-08-09T09:57:46.853Z,28.40
2018-08-09T10:00:20.773Z,28.40
2018-08-09T10:02:49.141Z,28.60
2018-08-09T10:05:17.557Z,28.70
2018-08-09T10:07:46.129Z,29.00
2018-08-09T10:10:14.573Z,29.30
2018-08-09T10:12:43.149Z,29.40
2018-08-09T10:15:12.200Z,29.30
2018-08-09T10:17:40.652Z,29.10
2018-08-09T10:20:09.549Z,28.90
2018-08-09T10:22:38.229Z,28.90
2018-08-09T10:25:07.036Z,29.10
2018-08-09T10:27:35.413Z,29.30
2018-08-09T10:30:05.069Z,29.40
2018-08-09T10:32:33.916Z,29.20
2018-08-09T10:35:02.320Z,28.90
2018-08-09T10:37:30.970Z,28.70
2018-08-09T10:39:59.365Z,28.70
2018-08-09T10:42:27.817Z,28.50
2018-08-09T10:44:56.398Z,28.40
2018-08-09T10:47:24.779Z,28.50
2018-08-09T10:49:53.207Z,28.40
2018-08-09T10:52:21.838Z,28.20
2018-08-09T10:54:50.284Z,28.00
2018-08-09T10:57:18.717Z,28.20
2018-08-09T10:59:47.277Z,28.00
2018-08-09T11:02:15.757Z,27.90
2018-08-09T11:04:44.321Z,28.00
2018-08-09T11:07:12.893Z,28.10
2018-08-09T11:09:41.247Z,28.00
2018-08-09T11:12:09.637Z,27.90
2018-08-09T11:14:38.300Z,27.90
2018-08-09T11:17:06.653Z,27.80
2018-08-09T11:19:35.046Z,27.60
2018-08-09T11:22:04.385Z,27.50
2018-08-09T11:24:32.765Z,27.50
2018-08-09T11:27:01.245Z,27.50
2018-08-09T11:29:29.866Z,27.30
2018-08-09T11:31:58.241Z,27.00
2018-08-09T11:34:26.597Z,26.80
2018-08-09T11:36:55.225Z,26.60
2018-08-09T11:39:23.661Z,26.50
2018-08-09T11:41:52.066Z,26.60
2018-08-09T11:44:20.525Z,26.70
2018-08-09T11:46:49.303Z,26.70
2018-08-09T11:49:17.963Z,26.80
2018-08-09T11:51:46.417Z,26.90
2018-08-09T11:54:14.817Z,26.90
2018-08-09T11:56:43.579Z,27.00
2018-08-09T11:59:12.023Z,27.00
2018-08-09T12:01:40.537Z,27.00
2018-08-09T12:04:09.162Z,27.10
2018-08-09T12:06:37.648Z,27.10
2018-08-09T12:09:07.945Z,27.00
2018-08-09T12:11:36.670Z,27.10
2018-08-09T12:14:06.310Z,27.10
2018-08-09T12:16:34.973Z,27.10
2018-08-09T12:19:04.737Z,27.20
2018-08-09T12:21:33.348Z,27.20
2018-08-09T12:24:01.833Z,27.30
2018-08-09T12:26:30.618Z,27.50
2018-08-09T12:28:59.081Z,27.70
2018-08-09T12:31:27.725Z,27.90
2018-08-09T12:33:56.330Z,27.90
2018-08-09T12:36:24.763Z,28.00
2018-08-09T12:38:53.365Z,28.10
2018-08-09T12:41:21.801Z,28.20
2018-08-09T12:43:50.189Z,28.20
2018-08-09T12:46:18.853Z,28.30
2018-08-09T12:48:47.293Z,28.40
2018-08-09T12:51:15.717Z,28.40
2018-08-09T12:53:44.334Z,28.50
2018-08-09T12:56:12.814Z,28.50
2018-08-09T12:58:41.208Z,28.50
2018-08-09T13:01:09.942Z,28.50
2018-08-09T13:03:38.400Z,28.50
2018-08-09T13:06:06.844Z,28.50
2018-08-09T13:08:36.105Z,28.70
2018-08-09T13:11:04.597Z,28.70
2018-08-09T13:13:33.002Z,28.70
2018-08-09T13:16:02.270Z,28.70
2018-08-09T13:18:30.981Z,28.70
2018-08-09T13:20:59.414Z,28.70
2018-08-09T13:23:28.043Z,28.80
2018-08-09T13:25:56.585Z,28.90
2018-08-09T13:28:25.010Z,28.80
2018-08-09T13:30:53.570Z,28.80
2018-08-09T13:33:21.989Z,28.80
2018-08-09T13:35:50.433Z,28.70
2018-08-09T13:38:19.113Z,28.60
2018-08-09T13:40:47.597Z,28.60
2018-08-09T13:43:16.083Z,28.60
2018-08-09T13:45:44.717Z,28.70
2018-08-09T13:48:13.197Z,28.70
2018-08-09T13:50:41.618Z,28.70
2018-08-09T13:53:10.238Z,28.70
2018-08-09T13:55:38.686Z,28.70
2018-08-09T13:58:07.362Z,28.80
2018-08-09T14:00:36.041Z,28.90
2018-08-09T14:03:04.514Z,29.00
2018-08-09T14:05:32.931Z,29.20
2018-08-09T14:08:01.753Z,29.40
2018-08-09T14:10:30.192Z,29.60
2018-08-09T14:12:58.713Z,29.70
2018-08-09T14:15:27.185Z,29.90
2018-08-09T14:17:55.923Z,30.00
2018-08-09T14:20:24.593Z,30.10
2018-08-09T14:22:53.469Z,30.00
2018-08-09T14:25:22.836Z,29.90
2018-08-09T14:27:51.816Z,29.90
2018-08-09T14:30:20.717Z,29.90
2018-08-09T14:32:49.931Z,29.90
2018-08-09T14:35:18.564Z,29.80
2018-08-09T14:37:47.488Z,29.70
2018-08-09T14:40:16.521Z,29.70
2018-08-09T14:42:45.259Z,29.70
2018-08-09T14:45:15.034Z,29.70
2018-08-09T14:47:43.483Z,29.70
2018-08-09T14:50:12.057Z,29.60
2018-08-09T14:52:40.583Z,29.50
2018-08-09T14:55:10.464Z,29.50
2018-08-09T14:57:39.059Z,29.50
2018-08-09T15:00:12.213Z,29.40
2018-08-09T15:02:40.782Z,29.30
2018-08-09T15:05:09.254Z,29.30
2018-08-09T15:07:38.396Z,29.40
2018-08-09T15:10:06.990Z,29.40
2018-08-09T15:12:35.559Z,29.40
2018-08-09T15:15:05.267Z,29.50
2018-08-09T15:17:33.688Z,29.70
2018-08-09T15:20:02.115Z,29.80
2018-08-09T15:22:30.841Z,29.80
2018-08-09T15:24:59.220Z,29.80
2018-08-09T15:27:27.633Z,30.00
2018-08-09T15:29:56.385Z,30.10
2018-08-09T15:32:24.830Z,30.10
2018-08-09T15:34:53.293Z,30.10
2018-08-09T15:37:21.797Z,30.00
2018-08-09T15:39:50.246Z,30.00
2018-08-09T15:42:18.896Z,30.00
2018-08-09T15:44:47.273Z,30.00
2018-08-09T15:47:15.650Z,29.90
2018-08-09T15:49:44.328Z,29.90
2018-08-09T15:52:12.730Z,29.80
2018-08-09T15:54:41.144Z,29.80
2018-08-09T15:57:09.809Z,29.80
2018-08-09T15:59:38.568Z,29.80
2018-08-09T16:02:06.989Z,29.80
2018-08-09T16:04:35.681Z,29.80
2018-08-09T16:07:04.697Z,29.80
2018-08-09T16:09:33.160Z,29.80
2018-08-09T16:12:01.898Z,29.80
2018-08-09T16:14:30.266Z,29.80
2018-08-09T16:16:58.645Z,29.70
2018-08-09T16:19:41.944Z,29.70
2018-08-09T16:22:10.713Z,29.70
2018-08-09T16:24:39.153Z,29.70
2018-08-09T16:27:08.559Z,29.70
2018-08-09T16:29:37.109Z,29.60
2018-08-09T16:32:05.793Z,29.60
2018-08-09T16:34:34.162Z,29.60
2018-08-09T16:37:02.609Z,29.60
2018-08-09T16:39:31.442Z,29.60
2018-08-09T16:41:59.876Z,29.50
2018-08-09T16:44:28.320Z,29.50
2018-08-09T16:46:56.882Z,29.50
2018-08-09T16:49:25.489Z,29.50
2018-08-09T16:51:53.874Z,29.50
2018-08-09T16:54:22.357Z,29.40
2018-08-09T16:56:50.961Z,29.40
2018-08-09T16:59:19.397Z,29.40
2018-08-09T17:01:47.806Z,29.40
2018-08-09T17:04:16.541Z,29.30
2018-08-09T17:06:45.122Z,29.40
2018-08-09T17:09:14.388Z,29.30
2018-08-09T17:11:44.073Z,29.20
2018-08-09T17:14:13.767Z,29.20
2018-08-09T17:16:42.237Z,29.00
2018-08-09T17:19:11.081Z,27.30
2018-08-09T17:21:39.709Z,25.20
2018-08-09T17:24:09.965Z,24.00
2018-08-09T17:26:39.279Z,23.30
2018-08-09T17:29:09.529Z,22.60
2018-08-09T17:31:39.230Z,22.30
2018-08-09T17:34:09.265Z,22.10
2018-08-09T17:36:37.706Z,22.20
2018-08-09T17:39:09.668Z,22.20
2018-08-09T17:41:38.872Z,22.20
2018-08-09T17:44:08.629Z,22.20
2018-08-09T17:46:37.285Z,22.30
2018-08-09T17:49:06.057Z,22.30
2018-08-09T17:51:34.885Z,22.30
2018-08-09T17:54:03.436Z,22.40
2018-08-09T17:56:32.145Z,22.50
2018-08-09T17:59:00.629Z,22.50
2018-08-09T18:01:29.038Z,22.60
2018-08-09T18:03:57.613Z,22.50
2018-08-09T18:06:26.049Z,22.60
2018-08-09T18:08:54.894Z,22.80
2018-08-09T18:11:23.573Z,22.80
2018-08-09T18:13:52.116Z,22.70
2018-08-09T18:16:20.549Z,22.70
2018-08-09T18:18:49.400Z,22.70
2018-08-09T18:21:17.916Z,22.80
2018-08-09T18:23:46.368Z,22.90
2018-08-09T18:26:14.794Z,23.00
2018-08-09T18:28:43.260Z,23.00
2018-08-09T18:31:11.958Z,22.90
2018-08-09T18:33:40.401Z,22.90
2018-08-09T18:36:09.350Z,22.90
2018-08-09T18:38:38.029Z,22.90
2018-08-09T18:41:07.000Z,22.90
2018-08-09T18:43:35.522Z,22.90
2018-08-09T18:46:04.044Z,22.90
2018-08-09T18:48:32.675Z,22.90
2018-08-09T18:51:01.709Z,22.90
2018-08-09T18:53:30.197Z,23.00
2018-08-09T18:55:58.876Z,23.00
2018-08-09T18:58:27.449Z,23.00
2018-08-09T19:00:56.019Z,22.90
2018-08-09T19:03:25.109Z,22.80
2018-08-09T19:05:53.617Z,22.80
2018-08-09T19:08:22.146Z,22.70
2018-08-09T19:10:50.656Z,22.70
2018-08-09T19:13:21.744Z,22.70
2018-08-09T19:15:50.262Z,22.50
2018-08-09T19:18:18.943Z,22.40
2018-08-09T19:20:47.709Z,22.40
2018-08-09T19:23:16.191Z,22.40
2018-08-09T19:25:44.753Z,22.40
2018-08-09T19:28:13.925Z,22.40
2018-08-09T19:30:43.497Z,22.40
2018-08-09T19:33:12.010Z,22.30
2018-08-09T19:35:40.797Z,22.30
2018-08-09T19:38:09.660Z,22.30
2018-08-09T19:40:38.889Z,22.20
2018-08-09T19:43:10.276Z,22.20
2018-08-09T19:45:40.042Z,22.10
2018-08-09T19:48:09.732Z,22.00
2018-08-09T19:50:38.411Z,22.00
2018-08-09T19:53:06.856Z,22.00
2018-08-09T19:55:35.316Z,21.90
2018-08-09T19:58:03.826Z,21.90
2018-08-09T20:00:32.597Z,21.90
2018-08-09T20:03:01.218Z,21.80
2018-08-09T20:05:29.839Z,21.80
2018-08-09T20:07:58.593Z,21.80
2018-08-09T20:10:27.111Z,21.80
2018-08-09T20:12:55.556Z,21.80
2018-08-09T20:15:24.891Z,21.80
2018-08-09T20:17:53.460Z,21.80
2018-08-09T20:20:23.310Z,21.80
2018-08-09T20:22:52.255Z,21.80
2018-08-09T20:25:20.885Z,21.80
2018-08-09T20:27:49.355Z,21.70
2018-08-09T20:30:18.791Z,21.70
2018-08-09T20:33:14.857Z,21.70
2018-08-09T20:35:43.406Z,21.60
2018-08-09T20:38:11.827Z,21.60
2018-08-09T20:40:40.564Z,21.60
2018-08-09T20:43:09.879Z,21.60
2018-08-09T20:45:38.959Z,21.50
2018-08-09T20:48:08.441Z,21.50
2018-08-09T20:50:37.127Z,21.50
2018-08-09T20:53:06.015Z,21.50
2018-08-09T20:55:34.751Z,21.40
2018-08-09T20:58:03.373Z,21.40
2018-08-09T21:00:33.302Z,21.30
2018-08-09T21:03:03.120Z,21.30
2018-08-09T21:05:35.225Z,21.30
2018-08-09T21:08:03.880Z,21.30
2018-08-09T21:10:32.365Z,21.30
2018-08-09T21:13:00.826Z,21.30
2018-08-09T21:15:29.472Z,21.30
2018-08-09T21:17:57.993Z,21.30
2018-08-09T21:20:26.434Z,21.20
2018-08-09T21:22:55.153Z,21.20
2018-08-09T21:25:23.610Z,21.20
2018-08-09T21:27:52.051Z,21.20
2018-08-09T21:30:21.784Z,21.20
2018-08-09T21:32:50.848Z,21.20
2018-08-09T21:35:19.394Z,21.10
2018-08-09T21:37:47.905Z,21.10
2018-08-09T21:40:17.029Z,21.10
2018-08-09T21:42:45.481Z,21.10
2018-08-09T21:45:17.665Z,21.10
2018-08-09T21:47:46.127Z,21.10
2018-08-09T21:50:16.599Z,21.00
2018-08-09T21:52:45.249Z,21.00
2018-08-09T21:55:14.037Z,21.00
2018-08-09T21:57:43.608Z,21.00
2018-08-09T22:01:03.513Z,21.10
2018-08-09T22:03:34.177Z,21.10
2018-08-09T22:06:07.873Z,21.10
2018-08-09T22:08:41.556Z,21.10
2018-08-09T22:11:16.801Z,21.10
2018-08-09T22:13:50.791Z,21.10
2018-08-09T22:16:24.494Z,21.20
2018-08-09T22:18:58.465Z,21.20
2018-08-09T22:21:32.102Z,21.30
2018-08-09T22:24:00.696Z,21.30
2018-08-09T22:26:29.092Z,21.30
2018-08-09T22:28:57.441Z,21.30
2018-08-09T22:31:25.896Z,21.30
2018-08-09T22:33:54.598Z,21.30
2018-08-09T22:36:23.303Z,21.20
2018-08-09T22:38:51.705Z,21.20
2018-08-09T22:41:20.129Z,21.20
2018-08-09T22:43:48.899Z,21.30
2018-08-09T22:46:17.366Z,21.30
2018-08-09T22:48:45.790Z,21.30
2018-08-09T22:51:14.357Z,21.30
2018-08-09T22:53:42.809Z,21.30
2018-08-09T22:56:11.165Z,21.30
2018-08-09T22:58:40.696Z,21.40
2018-08-09T23:01:09.100Z,21.40
2018-08-09T23:03:37.521Z,21.40
2018-08-09T23:06:06.581Z,21.40
2018-08-09T23:08:35.026Z,21.40
2018-08-09T23:11:03.424Z,21.40
2018-08-09T23:13:32.026Z,21.40
2018-08-09T23:16:00.449Z,21.30
2018-08-09T23:18:28.939Z,21.20
2018-08-09T23:20:57.493Z,21.20
2018-08-09T23:23:25.863Z,21.10
2018-08-09T23:25:54.245Z,21.10
2018-08-09T23:28:22.814Z,21.10
2018-08-09T23:30:51.226Z,21.00
2018-08-09T23:33:22.257Z,21.00
2018-08-09T23:35:50.681Z,20.90
2018-08-09T23:38:19.053Z,20.90
2018-08-09T23:40:47.497Z,20.80
2018-08-09T23:43:15.865Z,20.90
2018-08-09T23:45:44.521Z,20.90
2018-08-09T23:48:12.906Z,20.80
2018-08-09T23:50:41.290Z,20.80
2018-08-09T23:53:10.620Z,20.70
2018-08-09T23:55:39.604Z,20.70
2018-08-09T23:58:08.085Z,20.70
